University Oxford Airport
KUOX : rendu visible

Aérodrome :











RETROUVEZ-NOUS SUR...

 
LOGIN :

S'inscrire | Disclaimer

   EN    FR    IT 

 









Légende :    VFR   VFR Marginal   IFR   IFR Intensif   IFR Très Intensif
Visi : 
Plafond : 
>= 8 km
>= 3000ft
5 à 8 km
1000 à 3000 ft
1500m à 5 km
500 à 1000 ft
800 à 1500m
200 à 500 ft
< 800m
< 200 ft
Symboles :   Orages  Brouillard  Fortes neiges  Fortes précipitations  Vent > 20 kt






- Altitude de l'aérodrome : 452 ft


KUOX - University Oxford

DERNIER METAR :
  • 040235Z AUTO 00000KT 1/4SM FG VV002 21/21 A2996 RMK AO2 PWINO

METARs EXPIRÉS :
  • 040215Z AUTO 00000KT 1/4SM FG VV002 21/21 A2996 RMK AO2 PWINO
  • 040155Z AUTO 00000KT 1/2SM FG VV005 22/21 A2996 RMK AO2 PWINO
  • 040135Z AUTO 00000KT 1SM BR CLR 22/21 A2995 RMK AO2 PWINO
  • 040115Z AUTO 02004KT 6SM BR CLR 22/21 A2995 RMK AO2 PWINO
  • 040055Z AUTO 00000KT 6SM BR CLR 23/22 A2994 RMK AO2 PWINO
  • 040035Z AUTO 00000KT 5SM BR CLR 24/23 A2994 RMK AO2 PWINO
  • 040015Z AUTO 23003KT 5SM HZ CLR 25/22 A2993 RMK AO2 PWINO

TAF N/A
FIR KZME / Amérique du Nord



MET'MAP, la Météo Aéronautique d'un coup d'oeil ! - Copyright ORBIFLY Décembre 2007 - Disclaimer

ORBIFLY MET'MAP TEAM :

Programmation & Développement : Alexandra Zaïnal
Sur une idée originale de : Baudouin d'Aumeries
Assistance à la programmation : Marc-Olivier Méhu
Soutien technique & logistique : Manuel Goepfert

Contact : metmap@orbifly.com




SOURCES & CREDITS :

   NOAA       Earth
Advisory